createdAt,value
2018-08-25T00:01:36.247Z,18.80
2018-08-25T00:04:04.917Z,18.80
2018-08-25T00:06:33.691Z,18.80
2018-08-25T00:09:05.252Z,18.80
2018-08-25T00:11:33.987Z,18.80
2018-08-25T00:14:02.665Z,18.70
2018-08-25T00:16:31.284Z,16.60
2018-08-25T00:19:00.023Z,18.70
2018-08-25T00:21:28.599Z,18.70
2018-08-25T00:23:58.753Z,18.70
2018-08-25T00:26:27.456Z,18.70
2018-08-25T00:28:56.147Z,18.80
2018-08-25T00:31:25.446Z,18.80
2018-08-25T00:33:55.376Z,18.70
2018-08-25T00:36:24.741Z,18.80
2018-08-25T00:38:53.478Z,18.80
2018-08-25T00:41:22.230Z,18.80
2018-08-25T00:43:50.949Z,18.80
2018-08-25T00:46:21.219Z,18.70
2018-08-25T00:48:49.983Z,18.70
2018-08-25T00:51:18.816Z,18.70
2018-08-25T00:53:47.474Z,18.80
2018-08-25T00:56:18.930Z,18.70
2018-08-25T00:58:47.675Z,18.80
2018-08-25T01:01:16.347Z,18.70
2018-08-25T01:03:45.113Z,18.60
2018-08-25T01:06:13.724Z,18.70
2018-08-25T01:08:42.441Z,20.30
2018-08-25T01:11:11.196Z,18.70
2018-08-25T01:13:39.990Z,18.60
2018-08-25T01:16:08.790Z,18.60
2018-08-25T01:18:37.497Z,18.60
2018-08-25T01:21:06.219Z,18.60
2018-08-25T01:23:34.966Z,18.60
2018-08-25T01:26:03.613Z,18.60
2018-08-25T01:28:32.340Z,18.60
2018-08-25T01:31:00.999Z,19.30
2018-08-25T01:33:29.811Z,18.50
2018-08-25T01:35:58.560Z,17.30
2018-08-25T01:38:27.366Z,18.50
2018-08-25T01:40:56.340Z,18.50
2018-08-25T01:43:25.084Z,18.40
2018-08-25T01:45:54.323Z,18.50
2018-08-25T01:48:23.006Z,18.50
2018-08-25T01:50:51.848Z,18.50
2018-08-25T01:53:20.530Z,18.60
2018-08-25T01:55:49.245Z,18.60
2018-08-25T01:58:19.537Z,18.60
2018-08-25T02:00:48.238Z,18.60
2018-08-25T02:03:17.064Z,18.60
2018-08-25T02:05:45.715Z,18.60
2018-08-25T02:08:14.415Z,18.50
2018-08-25T02:10:43.129Z,18.30
2018-08-25T02:13:11.688Z,18.30
2018-08-25T02:15:40.283Z,18.20
2018-08-25T02:18:10.339Z,18.20
2018-08-25T02:20:39.137Z,18.20
2018-08-25T02:23:07.872Z,18.20
2018-08-25T02:25:36.414Z,18.30
2018-08-25T02:28:05.318Z,17.30
2018-08-25T02:30:33.967Z,18.10
2018-08-25T02:33:02.739Z,18.20
2018-08-25T02:35:32.195Z,18.20
2018-08-25T02:38:00.911Z,18.00
2018-08-25T02:40:29.617Z,18.00
2018-08-25T02:42:59.476Z,18.00
2018-08-25T02:45:28.087Z,17.90
2018-08-25T02:47:56.904Z,18.00
2018-08-25T02:50:25.694Z,18.00
2018-08-25T02:52:54.421Z,18.10
2018-08-25T02:55:23.581Z,18.10
2018-08-25T02:57:52.263Z,18.10
2018-08-25T03:00:20.859Z,18.10
2018-08-25T03:02:49.558Z,18.10
2018-08-25T03:05:18.168Z,17.90
2018-08-25T03:07:46.933Z,18.00
2018-08-25T03:10:15.755Z,18.00
2018-08-25T03:12:44.611Z,18.00
2018-08-25T03:15:13.232Z,17.90
2018-08-25T03:17:41.929Z,18.00
2018-08-25T03:20:10.610Z,18.00
2018-08-25T03:22:39.287Z,18.10
2018-08-25T03:25:08.040Z,18.10
2018-08-25T03:27:38.582Z,17.90
2018-08-25T03:30:09.714Z,17.90
2018-08-25T03:32:42.377Z,18.00
2018-08-25T03:35:11.165Z,17.90
2018-08-25T03:37:39.955Z,18.00
2018-08-25T03:40:08.732Z,18.00
2018-08-25T03:44:06.649Z,18.00
2018-08-25T03:46:38.602Z,18.00
2018-08-25T03:49:08.816Z,18.00
2018-08-25T03:51:37.605Z,18.00
2018-08-25T03:54:06.408Z,17.90
2018-08-25T03:56:35.221Z,17.90
2018-08-25T03:59:04.147Z,18.00
2018-08-25T04:01:33.018Z,18.10
2018-08-25T04:04:01.669Z,18.00
2018-08-25T04:06:30.423Z,18.00
2018-08-25T04:08:59.154Z,18.00
2018-08-25T04:11:27.855Z,18.00
2018-08-25T04:13:56.526Z,17.90
2018-08-25T04:16:25.428Z,17.90
2018-08-25T04:18:54.162Z,17.80
2018-08-25T04:21:23.015Z,17.80
2018-08-25T04:23:51.706Z,17.90
2018-08-25T04:26:20.985Z,17.90
2018-08-25T04:28:49.691Z,18.00
2018-08-25T04:31:18.431Z,18.00
2018-08-25T04:33:48.149Z,17.90
2018-08-25T04:36:16.846Z,18.00
2018-08-25T04:38:45.505Z,18.00
2018-08-25T04:41:14.251Z,18.10
2018-08-25T04:43:42.920Z,18.00
2018-08-25T04:46:13.643Z,17.90
2018-08-25T04:48:42.375Z,17.80
2018-08-25T04:51:11.072Z,17.80
2018-08-25T04:53:39.862Z,17.80
2018-08-25T04:56:09.011Z,17.80
2018-08-25T04:58:37.836Z,17.70
2018-08-25T05:01:06.736Z,17.70
2018-08-25T05:03:38.494Z,16.10
2018-08-25T05:06:07.161Z,17.70
2018-08-25T05:08:35.856Z,17.70
2018-08-25T05:11:04.599Z,17.80
2018-08-25T05:13:33.520Z,17.70
2018-08-25T05:16:02.371Z,17.70
2018-08-25T05:18:31.186Z,17.70
2018-08-25T05:20:59.930Z,17.60
2018-08-25T05:23:29.674Z,17.50
2018-08-25T05:25:58.570Z,17.50
2018-08-25T05:28:27.346Z,17.60
2018-08-25T05:30:56.178Z,17.60
2018-08-25T05:33:25.004Z,17.60
2018-08-25T05:35:53.722Z,17.60
2018-08-25T05:38:22.718Z,17.50
2018-08-25T05:40:51.368Z,17.60
2018-08-25T05:43:22.622Z,17.60
2018-08-25T05:45:51.358Z,17.70
2018-08-25T05:48:22.241Z,17.70
2018-08-25T05:50:50.930Z,17.60
2018-08-25T05:53:22.999Z,17.60
2018-08-25T05:55:51.945Z,17.60
2018-08-25T05:58:20.904Z,17.70
2018-08-25T06:00:49.532Z,17.70
2018-08-25T06:03:18.367Z,17.60
2018-08-25T06:05:47.156Z,17.50
2018-08-25T06:08:15.863Z,17.50
2018-08-25T06:10:44.551Z,17.50
2018-08-25T06:13:13.258Z,17.50
2018-08-25T06:15:41.951Z,17.60
2018-08-25T06:18:11.299Z,17.60
2018-08-25T06:20:40.025Z,17.60
2018-08-25T06:23:08.732Z,16.70
2018-08-25T06:25:37.437Z,17.70
2018-08-25T06:28:07.780Z,17.70
2018-08-25T06:30:36.558Z,17.70
2018-08-25T06:33:05.745Z,17.70
2018-08-25T06:35:34.522Z,17.80
2018-08-25T06:38:05.512Z,18.00
2018-08-25T06:40:34.414Z,18.20
2018-08-25T06:43:03.457Z,18.30
2018-08-25T06:45:32.964Z,18.10
2018-08-25T06:48:01.986Z,18.20
2018-08-25T06:50:31.079Z,18.20
2018-08-25T06:53:01.526Z,18.20
2018-08-25T06:55:31.973Z,18.20
2018-08-25T06:58:01.952Z,18.30
2018-08-25T07:00:31.387Z,18.30
2018-08-25T07:03:01.250Z,18.20
2018-08-25T07:05:30.049Z,18.10
2018-08-25T07:08:01.326Z,18.20
2018-08-25T07:10:30.326Z,18.40
2018-08-25T07:12:59.523Z,18.50
2018-08-25T07:15:28.296Z,18.30
2018-08-25T07:17:57.245Z,18.30
2018-08-25T07:20:26.186Z,18.30
2018-08-25T07:22:54.867Z,18.40
2018-08-25T07:25:24.784Z,18.40
2018-08-25T07:27:53.956Z,17.30
2018-08-25T07:30:22.947Z,18.40
2018-08-25T07:32:53.948Z,18.40
2018-08-25T07:35:22.928Z,18.30
2018-08-25T07:37:53.048Z,18.30
2018-08-25T07:40:22.439Z,18.30
2018-08-25T07:42:51.763Z,18.40
2018-08-25T07:45:20.964Z,18.40
2018-08-25T07:47:51.567Z,18.40
2018-08-25T07:50:20.199Z,18.40
2018-08-25T07:52:48.973Z,17.70
2018-08-25T07:55:17.967Z,18.40
2018-08-25T07:57:46.634Z,18.40
2018-08-25T08:00:15.406Z,18.40
2018-08-25T08:02:44.122Z,18.50
2018-08-25T08:05:12.714Z,18.40
2018-08-25T08:07:41.585Z,18.60
2018-08-25T08:10:11.036Z,18.70
2018-08-25T08:12:39.702Z,18.80
2018-08-25T08:15:08.479Z,18.80
2018-08-25T08:17:37.279Z,18.70
2018-08-25T08:20:06.528Z,18.90
2018-08-25T08:22:35.218Z,18.90
2018-08-25T08:25:04.047Z,19.00
2018-08-25T08:27:34.619Z,18.90
2018-08-25T08:30:05.294Z,19.10
2018-08-25T08:32:34.006Z,18.90
2018-08-25T08:35:02.768Z,18.90
2018-08-25T08:37:31.657Z,19.00
2018-08-25T08:40:00.433Z,18.90
2018-08-25T08:42:29.104Z,18.80
2018-08-25T08:44:59.498Z,18.80
2018-08-25T08:47:28.069Z,18.70
2018-08-25T08:49:56.906Z,18.80
2018-08-25T08:52:25.650Z,18.90
2018-08-25T08:54:54.327Z,19.00
2018-08-25T08:57:23.144Z,18.90
2018-08-25T08:59:51.864Z,18.90
2018-08-25T09:02:20.502Z,19.00
2018-08-25T09:04:49.401Z,19.00
2018-08-25T09:07:18.040Z,18.90
2018-08-25T09:09:46.741Z,18.80
2018-08-25T09:12:15.475Z,18.80
2018-08-25T09:14:44.059Z,18.80
2018-08-25T09:17:15.005Z,18.50
2018-08-25T09:19:43.992Z,18.80
2018-08-25T09:22:12.807Z,18.80
2018-08-25T09:24:42.963Z,18.80
2018-08-25T09:27:11.705Z,18.90
2018-08-25T09:29:40.378Z,19.10
2018-08-25T09:32:11.722Z,18.80
2018-08-25T09:34:40.447Z,18.80
2018-08-25T09:37:09.838Z,18.90
2018-08-25T09:39:38.523Z,18.50
2018-08-25T09:42:08.159Z,18.40
2018-08-25T09:44:36.923Z,18.40
2018-08-25T09:47:06.467Z,18.40
2018-08-25T09:49:35.324Z,18.60
2018-08-25T09:52:04.216Z,18.60
2018-08-25T09:54:34.320Z,18.80
2018-08-25T09:57:03.076Z,18.70
2018-08-25T09:59:32.709Z,17.50
2018-08-25T10:02:02.429Z,18.50
2018-08-25T10:04:32.981Z,18.50
2018-08-25T10:07:04.720Z,18.50
2018-08-25T10:09:33.501Z,18.60
2018-08-25T10:12:02.198Z,18.60
2018-08-25T10:14:31.080Z,18.60
2018-08-25T10:17:01.129Z,18.70
2018-08-25T10:19:29.914Z,18.80
2018-08-25T10:21:58.598Z,18.70
2018-08-25T10:24:27.306Z,18.60
2018-08-25T10:26:56.127Z,18.60
2018-08-25T10:29:24.906Z,17.40
2018-08-25T10:31:53.602Z,18.90
2018-08-25T10:34:22.312Z,19.00
2018-08-25T10:36:57.231Z,19.30
2018-08-25T10:39:26.150Z,19.60
2018-08-25T10:41:55.320Z,19.80
2018-08-25T10:44:24.170Z,19.60
2018-08-25T10:46:56.941Z,19.30
2018-08-25T10:49:26.048Z,19.30
2018-08-25T10:51:57.260Z,19.30
2018-08-25T10:54:25.944Z,19.20
2018-08-25T10:56:54.623Z,19.20
2018-08-25T10:59:23.390Z,19.40
2018-08-25T11:01:52.051Z,19.60
2018-08-25T11:04:20.811Z,19.60
2018-08-25T11:06:49.527Z,19.50
2018-08-25T11:09:19.841Z,17.80
2018-08-25T11:11:49.179Z,17.40
2018-08-25T11:14:18.049Z,19.10
2018-08-25T11:16:47.038Z,19.20
2018-08-25T11:19:15.850Z,19.40
2018-08-25T11:21:44.606Z,19.30
2018-08-25T11:24:13.415Z,19.60
2018-08-25T11:26:42.392Z,19.80
2018-08-25T11:29:14.565Z,19.30
2018-08-25T11:31:43.558Z,19.20
2018-08-25T11:34:12.379Z,19.50
2018-08-25T11:36:41.382Z,19.70
2018-08-25T11:39:11.074Z,19.90
2018-08-25T11:41:40.090Z,19.50
2018-08-25T11:44:09.263Z,19.90
2018-08-25T11:46:38.230Z,20.10
2018-08-25T11:49:07.034Z,20.40
2018-08-25T11:51:35.831Z,20.90
2018-08-25T11:54:05.110Z,20.70
2018-08-25T11:56:33.862Z,21.20
2018-08-25T11:59:02.844Z,20.80
2018-08-25T12:01:32.515Z,21.50
2018-08-25T12:04:01.969Z,21.40
2018-08-25T12:06:30.925Z,21.40
2018-08-25T12:08:59.727Z,21.60
2018-08-25T12:11:28.524Z,20.90
2018-08-25T12:13:57.299Z,20.60
2018-08-25T12:16:26.434Z,20.10
2018-08-25T12:18:55.276Z,20.10
2018-08-25T12:21:24.461Z,20.10
2018-08-25T12:23:54.213Z,20.20
2018-08-25T12:26:23.131Z,20.00
2018-08-25T12:28:51.867Z,19.90
2018-08-25T12:31:20.523Z,19.70
2018-08-25T12:33:49.460Z,19.80
2018-08-25T12:36:18.118Z,20.00
2018-08-25T12:38:46.815Z,19.80
2018-08-25T12:41:15.641Z,19.90
2018-08-25T12:43:46.829Z,20.00
2018-08-25T12:46:15.529Z,20.30
2018-08-25T12:48:44.244Z,20.20
2018-08-25T12:51:12.873Z,19.60
2018-08-25T12:53:41.635Z,19.50
2018-08-25T12:56:10.538Z,19.80
2018-08-25T12:58:39.403Z,20.10
2018-08-25T13:01:08.221Z,20.50
2018-08-25T13:03:37.325Z,20.70
2018-08-25T13:06:06.007Z,20.80
2018-08-25T13:08:34.782Z,20.90
2018-08-25T13:11:03.445Z,20.90
2018-08-25T13:13:32.072Z,20.90
2018-08-25T13:16:00.803Z,20.60
2018-08-25T13:18:29.767Z,20.50
2018-08-25T13:20:58.529Z,20.60
2018-08-25T13:23:27.990Z,20.70
2018-08-25T13:25:56.539Z,20.10
2018-08-25T13:28:25.301Z,20.40
2018-08-25T13:30:54.127Z,20.20
2018-08-25T13:33:22.702Z,20.20
2018-08-25T13:35:51.406Z,20.30
2018-08-25T13:38:22.513Z,21.40
2018-08-25T13:40:51.377Z,20.70
2018-08-25T13:43:19.991Z,20.80
2018-08-25T13:45:48.761Z,20.70
2018-08-25T13:48:17.511Z,18.50
2018-08-25T13:50:46.237Z,20.10
2018-08-25T13:53:14.909Z,20.00
2018-08-25T13:55:43.740Z,21.30
2018-08-25T13:58:12.602Z,20.20
2018-08-25T14:00:42.787Z,20.20
2018-08-25T14:03:11.503Z,20.10
2018-08-25T14:05:40.274Z,20.10
2018-08-25T14:08:09.029Z,20.10
2018-08-25T14:10:37.957Z,20.00
2018-08-25T14:13:06.671Z,19.90
2018-08-25T14:15:35.347Z,19.80
2018-08-25T14:18:04.032Z,19.70
2018-08-25T14:20:34.927Z,19.50
2018-08-25T14:23:04.759Z,19.50
2018-08-25T14:25:33.477Z,19.40
2018-08-25T14:28:02.175Z,19.50
2018-08-25T14:30:31.875Z,19.50
2018-08-25T14:33:00.628Z,19.50
2018-08-25T14:35:29.370Z,19.40
2018-08-25T14:37:58.114Z,19.40
2018-08-25T14:40:28.642Z,20.80
2018-08-25T14:42:57.531Z,19.20
2018-08-25T14:45:26.379Z,19.10
2018-08-25T14:47:55.197Z,19.00
2018-08-25T14:50:24.021Z,18.90
2018-08-25T14:52:52.929Z,18.80
2018-08-25T14:55:21.644Z,18.80
2018-08-25T14:57:50.384Z,18.70
2018-08-25T15:00:19.135Z,18.70
2018-08-25T15:02:48.279Z,18.70
2018-08-25T15:05:16.953Z,18.70
2018-08-25T15:07:46.595Z,18.70
2018-08-25T15:10:15.454Z,18.60
2018-08-25T15:12:44.040Z,18.60
2018-08-25T15:15:12.931Z,18.40
2018-08-25T15:17:41.617Z,18.30
2018-08-25T15:20:10.366Z,18.10
2018-08-25T15:22:39.037Z,18.00
2018-08-25T15:25:08.077Z,17.80
2018-08-25T15:27:36.743Z,17.60
2018-08-25T15:30:05.485Z,15.40
2018-08-25T15:32:34.132Z,17.40
2018-08-25T15:35:04.174Z,17.40
2018-08-25T15:37:36.774Z,17.40
2018-08-25T15:40:07.485Z,17.20
2018-08-25T15:42:36.849Z,17.10
2018-08-25T15:45:06.812Z,17.20
2018-08-25T15:47:35.528Z,17.20
2018-08-25T15:50:04.355Z,17.20
2018-08-25T15:52:33.071Z,17.20
2018-08-25T15:55:01.717Z,17.20
2018-08-25T15:57:30.470Z,17.10
2018-08-25T15:59:59.159Z,17.10
2018-08-25T16:02:28.214Z,16.90
2018-08-25T16:05:01.589Z,16.90
2018-08-25T16:07:30.517Z,17.00
2018-08-25T16:09:59.418Z,16.80
2018-08-25T16:12:28.226Z,16.90
2018-08-25T16:14:56.810Z,16.70
2018-08-25T16:17:25.440Z,16.80
2018-08-25T16:19:54.409Z,16.80
2018-08-25T16:22:23.021Z,16.90
2018-08-25T16:24:51.671Z,16.80
2018-08-25T16:27:22.016Z,16.80
2018-08-25T16:29:51.911Z,16.70
2018-08-25T16:32:20.583Z,16.70
2018-08-25T16:34:52.502Z,16.70
2018-08-25T16:37:21.218Z,16.70
2018-08-25T16:39:52.612Z,16.70
2018-08-25T16:42:21.294Z,16.60
2018-08-25T16:44:49.899Z,16.60
2018-08-25T16:47:18.651Z,16.50
2018-08-25T16:49:47.592Z,16.60
2018-08-25T16:52:16.307Z,16.60
2018-08-25T16:54:45.004Z,16.60
2018-08-25T16:57:13.848Z,16.50
2018-08-25T16:59:42.480Z,16.60
2018-08-25T17:02:11.496Z,16.60
2018-08-25T17:04:42.111Z,16.50
2018-08-25T17:07:10.932Z,15.20
2018-08-25T17:09:39.922Z,16.50
2018-08-25T17:12:08.673Z,16.40
2018-08-25T17:14:38.012Z,16.40
2018-08-25T17:17:06.952Z,16.40
2018-08-25T17:19:35.800Z,16.30
2018-08-25T17:22:04.744Z,16.30
2018-08-25T17:24:33.276Z,16.30
2018-08-25T17:27:04.546Z,16.30
2018-08-25T17:29:33.301Z,16.30
2018-08-25T17:32:02.163Z,16.90
2018-08-25T17:34:31.319Z,16.10
2018-08-25T17:37:00.183Z,16.10
2018-08-25T17:39:28.910Z,15.90
2018-08-25T17:41:57.674Z,15.90
2018-08-25T17:44:26.646Z,15.90
2018-08-25T17:46:56.876Z,15.90
2018-08-25T17:49:26.419Z,15.80
2018-08-25T17:51:55.604Z,15.80
2018-08-25T17:54:24.423Z,15.80
2018-08-25T17:56:53.518Z,15.70
2018-08-25T17:59:22.409Z,15.60
2018-08-25T18:01:51.360Z,15.60
2018-08-25T18:04:24.880Z,15.60
2018-08-25T18:06:53.603Z,15.60
2018-08-25T18:09:22.325Z,15.60
2018-08-25T18:11:52.928Z,13.80
2018-08-25T18:14:21.621Z,15.60
2018-08-25T18:16:50.339Z,15.50
2018-08-25T18:19:19.104Z,15.50
2018-08-25T18:21:47.781Z,15.50
2018-08-25T18:24:16.552Z,15.50
2018-08-25T18:26:45.292Z,15.50
2018-08-25T18:29:14.077Z,15.50
2018-08-25T18:31:42.768Z,15.50
2018-08-25T18:34:11.434Z,15.50
2018-08-25T18:36:40.156Z,15.40
2018-08-25T18:39:11.008Z,15.30
2018-08-25T18:41:39.829Z,15.30
2018-08-25T18:44:11.134Z,15.20
2018-08-25T18:46:39.802Z,15.10
2018-08-25T18:49:12.084Z,15.10
2018-08-25T18:51:40.787Z,15.10
2018-08-25T18:54:09.476Z,15.10
2018-08-25T18:56:38.393Z,15.10
2018-08-25T18:59:07.111Z,15.10
2018-08-25T19:01:35.865Z,15.20
2018-08-25T19:04:04.607Z,15.20
2018-08-25T19:06:33.446Z,15.10
2018-08-25T19:09:02.246Z,15.10
2018-08-25T19:11:32.099Z,16.70
2018-08-25T19:16:41.719Z,14.90
2018-08-25T19:19:10.419Z,14.80
2018-08-25T19:21:38.946Z,14.90
2018-08-25T19:24:07.856Z,14.90
2018-08-25T19:26:36.522Z,14.80
2018-08-25T19:29:05.355Z,14.80
2018-08-25T19:31:34.238Z,14.80
2018-08-25T19:34:03.038Z,14.90
2018-08-25T19:36:31.757Z,14.90
2018-08-25T19:39:00.518Z,15.30
2018-08-25T19:41:32.841Z,14.90
2018-08-25T19:44:01.936Z,14.90
2018-08-25T19:46:31.150Z,14.90
2018-08-25T19:49:03.498Z,14.80
2018-08-25T19:51:33.396Z,14.90
2018-08-25T19:54:03.275Z,14.90
2018-08-25T19:56:32.661Z,14.90
2018-08-25T19:59:02.318Z,14.90
2018-08-25T20:01:31.359Z,14.80
2018-08-25T20:04:00.662Z,14.90
2018-08-25T20:06:30.286Z,14.90
2018-08-25T20:08:59.034Z,14.80
2018-08-25T20:11:27.822Z,14.80
2018-08-25T20:13:56.367Z,14.80
2018-08-25T20:16:25.807Z,14.70
2018-08-25T20:18:56.535Z,14.70
2018-08-25T20:21:25.365Z,14.70
2018-08-25T20:23:54.148Z,14.80
2018-08-25T20:26:22.967Z,14.70
2018-08-25T20:28:51.607Z,14.50
2018-08-25T20:31:20.393Z,14.50
2018-08-25T20:33:49.098Z,14.60
2018-08-25T20:36:17.837Z,14.50
2018-08-25T20:38:46.554Z,14.50
2018-08-25T20:41:15.282Z,14.60
2018-08-25T20:43:44.030Z,14.60
2018-08-25T20:46:12.698Z,14.60
2018-08-25T20:48:41.425Z,14.60
2018-08-25T20:51:10.091Z,15.70
2018-08-25T20:53:38.863Z,13.40
2018-08-25T20:56:07.611Z,14.50
2018-08-25T20:58:36.488Z,14.60
2018-08-25T21:01:05.260Z,14.60
2018-08-25T21:03:36.349Z,14.70
2018-08-25T21:06:05.487Z,14.70
2018-08-25T21:08:35.810Z,14.70
2018-08-25T21:11:04.633Z,14.70
2018-08-25T21:13:33.430Z,14.70
2018-08-25T21:16:02.780Z,14.70
2018-08-25T21:18:31.603Z,14.70
2018-08-25T21:21:00.271Z,14.70
2018-08-25T21:23:29.097Z,14.80
2018-08-25T21:25:58.018Z,14.70
2018-08-25T21:28:27.095Z,14.70
2018-08-25T21:30:55.770Z,14.70
2018-08-25T21:33:24.452Z,14.70
2018-08-25T21:35:53.550Z,14.70
2018-08-25T21:38:28.138Z,14.70
2018-08-25T21:40:56.811Z,14.70
2018-08-25T21:43:25.465Z,14.70
2018-08-25T21:45:54.246Z,14.60
2018-08-25T21:48:22.906Z,14.60
2018-08-25T21:50:51.724Z,14.60
2018-08-25T21:53:20.480Z,14.60
2018-08-25T21:55:49.173Z,14.50
2018-08-25T21:58:18.102Z,14.50
2018-08-25T22:00:52.106Z,14.40
2018-08-25T22:03:20.784Z,14.40
2018-08-25T22:05:49.777Z,14.40
2018-08-25T22:08:18.451Z,14.30
2018-08-25T22:10:47.132Z,14.40
2018-08-25T22:13:15.865Z,14.40
2018-08-25T22:15:44.704Z,14.40
2018-08-25T22:18:13.448Z,14.40
2018-08-25T22:20:42.154Z,14.40
2018-08-25T22:23:10.912Z,14.40
2018-08-25T22:25:39.836Z,14.40
2018-08-25T22:28:08.580Z,14.30
2018-08-25T22:30:37.305Z,14.30
2018-08-25T22:33:06.250Z,14.40
2018-08-25T22:35:34.928Z,14.40
2018-08-25T22:38:03.734Z,14.40
2018-08-25T22:40:34.017Z,14.40
2018-08-25T22:43:04.990Z,14.50
2018-08-25T22:45:33.644Z,14.40
2018-08-25T22:48:02.420Z,14.30
2018-08-25T22:50:32.943Z,14.40
2018-08-25T22:53:01.784Z,14.30
2018-08-25T22:55:32.911Z,14.20
2018-08-25T22:58:01.868Z,12.60
2018-08-25T23:00:33.614Z,14.20
2018-08-25T23:03:02.271Z,14.30
2018-08-25T23:05:35.573Z,14.20
2018-08-25T23:08:05.199Z,14.20
2018-08-25T23:10:34.732Z,14.10
2018-08-25T23:13:03.605Z,14.10
2018-08-25T23:15:32.819Z,14.10
2018-08-25T23:18:01.850Z,14.20
2018-08-25T23:20:33.691Z,14.10
2018-08-25T23:23:03.029Z,14.10
2018-08-25T23:25:31.618Z,14.20
2018-08-25T23:28:05.244Z,14.10
2018-08-25T23:30:33.960Z,13.00
2018-08-25T23:33:06.619Z,14.00
2018-08-25T23:35:35.180Z,14.20
2018-08-25T23:38:08.291Z,14.20
2018-08-25T23:40:37.302Z,14.10
2018-08-25T23:43:05.863Z,14.10
2018-08-25T23:45:34.740Z,14.20
2018-08-25T23:48:04.130Z,14.20
2018-08-25T23:50:32.681Z,14.30
2018-08-25T23:53:07.085Z,14.30
2018-08-25T23:55:35.840Z,14.20
2018-08-25T23:58:04.650Z,14.20
